createdAt,value
2023-02-10T00:00:51.917Z,101471.25
2023-02-10T00:02:24.087Z,101478.47
2023-02-10T00:03:57.296Z,101476.16
2023-02-10T00:05:29.382Z,101470.84
2023-02-10T00:07:01.344Z,101476.91
2023-02-10T00:08:33.500Z,101477.22
2023-02-10T00:10:05.662Z,101475.00
2023-02-10T00:11:56.123Z,101480.78
2023-02-10T00:13:28.791Z,101485.38
2023-02-10T00:15:00.749Z,101479.81
2023-02-10T00:16:32.679Z,101482.22
2023-02-10T00:18:04.806Z,101486.44
2023-02-10T00:19:36.780Z,101484.53
2023-02-10T00:21:10.253Z,101486.72
2023-02-10T00:22:42.168Z,101479.56
2023-02-10T00:24:14.225Z,101489.09
2023-02-10T00:25:46.897Z,101489.44
2023-02-10T00:27:24.171Z,101490.25
2023-02-10T00:28:56.140Z,101487.25
2023-02-10T00:30:28.207Z,101490.28
2023-02-10T00:32:00.129Z,101480.06
2023-02-10T00:33:32.244Z,101487.28
2023-02-10T00:35:04.263Z,101483.50
2023-02-10T00:36:36.709Z,101479.28
2023-02-10T00:38:08.653Z,101484.13
2023-02-10T00:39:40.604Z,101481.81
2023-02-10T00:41:13.958Z,101485.97
2023-02-10T00:42:45.948Z,101491.97
2023-02-10T00:44:17.882Z,101490.06
2023-02-10T00:45:50.144Z,101493.50
2023-02-10T00:47:24.789Z,101495.09
2023-02-10T00:48:56.715Z,101494.41
2023-02-10T00:50:28.740Z,101500.53
2023-02-10T00:52:00.710Z,101490.34
2023-02-10T00:53:32.900Z,101493.00
2023-02-10T00:55:08.151Z,101494.97
2023-02-10T00:56:41.624Z,101495.06
2023-02-10T00:58:13.710Z,101498.53
2023-02-10T00:59:49.037Z,101498.19
2023-02-10T01:01:21.281Z,101502.69
2023-02-10T01:02:53.215Z,101502.69
2023-02-10T01:04:25.219Z,101503.09
2023-02-10T01:05:59.122Z,101506.56
2023-02-10T01:07:31.090Z,101500.16
2023-02-10T01:09:03.182Z,101504.44
2023-02-10T01:10:38.329Z,101508.72
2023-02-10T01:12:10.294Z,101508.50
2023-02-10T01:13:42.644Z,101509.00
2023-02-10T01:15:14.847Z,101505.63
2023-02-10T01:16:46.870Z,101502.19
2023-02-10T01:18:18.824Z,101505.63
2023-02-10T01:19:52.366Z,101499.50
2023-02-10T01:21:24.438Z,101495.69
2023-02-10T01:22:56.453Z,101494.47
2023-02-10T01:24:28.424Z,101492.53
2023-02-10T01:26:02.035Z,101493.28
2023-02-10T01:27:33.989Z,101486.41
2023-02-10T01:29:05.971Z,101490.94
2023-02-10T01:30:42.359Z,101484.50
2023-02-10T01:32:16.978Z,101481.78
2023-02-10T01:33:51.445Z,101473.44
2023-02-10T01:35:23.483Z,101478.78
2023-02-10T01:36:55.457Z,101472.84
2023-02-10T01:38:29.277Z,101468.75
2023-02-10T01:40:01.318Z,101469.88
2023-02-10T01:41:36.244Z,101474.03
2023-02-10T01:43:14.910Z,101470.97
2023-02-10T01:44:46.911Z,101470.56
2023-02-10T01:46:18.990Z,101466.00
2023-02-10T01:47:52.939Z,101459.16
2023-02-10T01:49:26.958Z,101467.88
2023-02-10T01:51:01.513Z,101468.28
2023-02-10T01:52:34.267Z,101464.53
2023-02-10T01:54:07.005Z,101463.09
2023-02-10T01:55:40.701Z,101463.03
2023-02-10T01:57:13.122Z,101464.53
2023-02-10T01:58:45.666Z,101453.91
2023-02-10T02:00:17.675Z,101462.66
2023-02-10T02:01:50.570Z,101458.16
2023-02-10T02:03:25.554Z,101457.31
2023-02-10T02:05:01.101Z,101461.88
2023-02-10T02:06:35.491Z,101467.59
2023-02-10T02:08:09.476Z,101452.75
2023-02-10T02:09:41.860Z,101456.94
2023-02-10T02:11:17.670Z,101455.81
2023-02-10T02:12:58.703Z,101465.72
2023-02-10T02:14:33.724Z,101457.78
2023-02-10T02:16:29.741Z,101456.63
2023-02-10T02:18:22.451Z,101454.78
2023-02-10T02:20:21.534Z,101451.03
2023-02-10T02:21:56.487Z,101458.28
2023-02-10T02:23:47.191Z,101453.75
2023-02-10T02:25:19.166Z,101450.38
2023-02-10T02:27:15.204Z,101454.50
2023-02-10T02:29:07.037Z,101447.00
2023-02-10T02:30:45.018Z,101450.19
2023-02-10T02:32:23.617Z,101457.03
2023-02-10T02:34:28.107Z,101451.00
2023-02-10T02:36:05.134Z,101446.44
2023-02-10T02:37:47.821Z,101444.88
2023-02-10T02:39:19.750Z,101445.69
2023-02-10T02:40:52.214Z,101447.94
2023-02-10T02:42:25.492Z,101447.94
2023-02-10T02:43:58.195Z,101448.38
2023-02-10T02:45:38.693Z,101450.69
2023-02-10T02:47:15.453Z,101447.75
2023-02-10T02:48:57.398Z,101448.91
2023-02-10T02:50:46.314Z,101450.41
2023-02-10T02:52:22.062Z,101457.94
2023-02-10T02:54:11.097Z,101465.13
2023-02-10T02:55:43.081Z,101458.00
2023-02-10T02:57:32.373Z,101461.41
2023-02-10T02:59:07.197Z,101450.00
2023-02-10T03:00:41.576Z,101456.81
2023-02-10T03:02:14.868Z,101458.72
2023-02-10T03:03:47.003Z,101451.84
2023-02-10T03:05:24.757Z,101456.75
2023-02-10T03:06:56.702Z,101458.66
2023-02-10T03:08:30.652Z,101460.22
2023-02-10T03:10:04.773Z,101465.50
2023-02-10T03:11:36.815Z,101459.50
2023-02-10T03:13:08.779Z,101461.44
2023-02-10T03:14:40.750Z,101455.00
2023-02-10T03:16:12.777Z,101457.66
2023-02-10T03:17:44.766Z,101467.91
2023-02-10T03:19:16.785Z,101468.72
2023-02-10T03:20:48.878Z,101462.66
2023-02-10T03:22:20.833Z,101455.88
2023-02-10T03:23:52.828Z,101460.44
2023-02-10T03:25:24.796Z,101466.06
2023-02-10T03:26:58.353Z,101467.97
2023-02-10T03:28:30.609Z,101467.97
2023-02-10T03:30:02.761Z,101465.72
2023-02-10T03:31:35.434Z,101473.25
2023-02-10T03:33:07.507Z,101467.97
2023-02-10T03:34:39.601Z,101463.41
2023-02-10T03:36:11.628Z,101474.00
2023-02-10T03:37:43.679Z,101477.81
2023-02-10T03:39:15.793Z,101470.66
2023-02-10T03:40:50.470Z,101474.84
2023-02-10T03:42:22.533Z,101465.41
2023-02-10T03:43:54.493Z,101457.44
2023-02-10T03:45:26.530Z,101464.28
2023-02-10T03:46:58.532Z,101459.72
2023-02-10T03:48:33.919Z,101464.28
2023-02-10T03:50:06.106Z,101476.41
2023-02-10T03:51:38.286Z,101474.88
2023-02-10T03:53:10.328Z,101468.06
2023-02-10T03:54:42.388Z,101474.88
2023-02-10T03:56:14.426Z,101482.06
2023-02-10T03:57:46.917Z,101495.69
2023-02-10T03:59:18.894Z,101491.88
2023-02-10T04:00:50.860Z,101488.91
2023-02-10T04:02:22.916Z,101480.25
2023-02-10T04:03:54.978Z,101471.63
2023-02-10T04:05:26.927Z,101479.94
2023-02-10T04:06:58.920Z,101481.84
2023-02-10T04:08:30.951Z,101475.41
2023-02-10T04:10:03.477Z,101484.13
2023-02-10T04:11:35.410Z,101483.34
2023-02-10T04:13:07.493Z,101477.25
2023-02-10T04:14:39.421Z,101480.66
2023-02-10T04:16:13.193Z,101477.63
2023-02-10T04:17:45.264Z,101479.13
2023-02-10T04:19:17.326Z,101477.63
2023-02-10T04:20:51.177Z,101474.66
2023-02-10T04:22:23.322Z,101478.88
2023-02-10T04:23:55.331Z,101475.53
2023-02-10T04:25:27.393Z,101481.97
2023-02-10T04:26:59.363Z,101479.72
2023-02-10T04:28:31.434Z,101478.94
2023-02-10T04:30:03.575Z,101481.59
2023-02-10T04:31:35.904Z,101478.97
2023-02-10T04:33:07.906Z,101485.41
2023-02-10T04:34:40.023Z,101485.00
2023-02-10T04:36:12.057Z,101488.00
2023-02-10T04:37:44.076Z,101483.09
2023-02-10T04:39:16.018Z,101483.81
2023-02-10T04:40:48.000Z,101483.13
2023-02-10T04:42:20.245Z,101482.00
2023-02-10T04:43:52.336Z,101473.31
2023-02-10T04:45:24.252Z,101483.53
2023-02-10T04:46:56.339Z,101479.75
2023-02-10T04:48:28.354Z,101489.97
2023-02-10T04:50:00.455Z,101492.63
2023-02-10T04:51:32.378Z,101485.06
2023-02-10T04:53:04.793Z,101484.69
2023-02-10T04:54:36.737Z,101492.63
2023-02-10T04:56:08.725Z,101496.00
2023-02-10T04:57:40.691Z,101499.00
2023-02-10T04:59:13.270Z,101498.28
2023-02-10T05:00:45.200Z,101492.25
2023-02-10T05:02:17.269Z,101497.91
2023-02-10T05:03:49.249Z,101483.53
2023-02-10T05:05:21.368Z,101493.34
2023-02-10T05:06:59.294Z,101484.22
2023-02-10T05:08:31.230Z,101488.78
2023-02-10T05:10:03.180Z,101489.16
2023-02-10T05:11:35.317Z,101483.13
2023-02-10T05:13:07.234Z,101478.22
2023-02-10T05:14:39.259Z,101490.34
2023-02-10T05:16:12.089Z,101483.56
2023-02-10T05:17:44.081Z,101486.66
2023-02-10T05:19:16.022Z,101488.56
2023-02-10T05:20:49.695Z,101485.19
2023-02-10T05:22:25.706Z,101485.94
2023-02-10T05:23:58.675Z,101494.25
2023-02-10T05:25:30.626Z,101489.00
2023-02-10T05:27:02.675Z,101489.03
2023-02-10T05:28:35.180Z,101495.09
2023-02-10T05:30:07.784Z,101498.47
2023-02-10T05:31:39.876Z,101497.31
2023-02-10T05:33:11.906Z,101491.28
2023-02-10T05:34:44.010Z,101495.09
2023-02-10T05:36:16.021Z,101495.13
2023-02-10T05:37:50.946Z,101505.69
2023-02-10T05:39:25.752Z,101501.97
2023-02-10T05:41:00.769Z,101511.78
2023-02-10T05:42:32.975Z,101511.38
2023-02-10T05:44:07.672Z,101509.16
2023-02-10T05:45:39.800Z,101509.16
2023-02-10T05:47:11.733Z,101516.34
2023-02-10T05:48:43.760Z,101525.78
2023-02-10T05:50:15.786Z,101523.13
2023-02-10T05:51:47.871Z,101526.56
2023-02-10T05:53:20.269Z,101526.97
2023-02-10T05:54:52.281Z,101529.25
2023-02-10T05:56:24.357Z,101533.81
2023-02-10T05:57:56.457Z,101538.72
2023-02-10T05:59:28.430Z,101536.84
2023-02-10T06:01:00.681Z,101541.38
2023-02-10T06:02:33.051Z,101538.38
2023-02-10T06:04:05.168Z,101535.75
2023-02-10T06:05:37.229Z,101532.72
2023-02-10T06:07:09.288Z,101535.75
2023-02-10T06:08:43.341Z,101534.22
2023-02-10T06:10:15.763Z,101535.75
2023-02-10T06:11:47.928Z,101542.53
2023-02-10T06:13:20.002Z,101542.13
2023-02-10T06:14:51.928Z,101542.50
2023-02-10T06:16:24.111Z,101547.38
2023-02-10T06:17:56.050Z,101546.25
2023-02-10T06:19:28.151Z,101551.47
2023-02-10T06:21:00.105Z,101555.94
2023-02-10T06:22:32.137Z,101545.34
2023-02-10T06:24:04.138Z,101552.84
2023-02-10T06:25:37.530Z,101550.19
2023-02-10T06:27:09.546Z,101550.50
2023-02-10T06:28:41.671Z,101552.34
2023-02-10T06:30:16.743Z,101551.91
2023-02-10T06:31:48.913Z,101561.28
2023-02-10T06:33:22.426Z,101559.34
2023-02-10T06:34:54.630Z,101555.47
2023-02-10T06:36:26.602Z,101545.97
2023-02-10T06:37:59.193Z,101553.09
2023-02-10T06:39:37.249Z,101554.53
2023-02-10T06:41:12.197Z,101555.59
2023-02-10T06:42:44.180Z,101561.59
2023-02-10T06:44:17.365Z,101557.00
2023-02-10T06:45:52.339Z,101564.50
2023-02-10T06:47:28.055Z,101567.91
2023-02-10T06:49:00.597Z,101568.19
2023-02-10T06:50:35.423Z,101573.84
2023-02-10T06:52:16.610Z,101575.69
2023-02-10T06:53:49.152Z,101585.13
2023-02-10T06:55:25.278Z,101591.91
2023-02-10T06:57:01.735Z,101593.66
2023-02-10T06:58:33.671Z,101591.03
2023-02-10T07:00:11.626Z,101593.91
2023-02-10T07:01:49.266Z,101605.34
2023-02-10T07:03:26.911Z,101600.81
2023-02-10T07:05:01.273Z,101601.69
2023-02-10T07:06:34.614Z,101600.38
2023-02-10T07:08:18.256Z,101597.09
2023-02-10T07:09:50.361Z,101605.97
2023-02-10T07:11:22.349Z,101606.47
2023-02-10T07:12:57.786Z,101603.06
2023-02-10T07:14:32.376Z,101609.13
2023-02-10T07:16:05.390Z,101612.69
2023-02-10T07:17:43.911Z,101611.72
2023-02-10T07:19:18.173Z,101614.31
2023-02-10T07:20:50.102Z,101618.34
2023-02-10T07:22:24.980Z,101620.38
2023-02-10T07:23:57.213Z,101614.50
2023-02-10T07:25:35.472Z,101608.66
2023-02-10T07:27:12.897Z,101610.50
2023-02-10T07:28:53.601Z,101614.13
2023-02-10T07:30:25.646Z,101617.44
2023-02-10T07:31:59.334Z,101615.84
2023-02-10T07:33:33.875Z,101617.66
2023-02-10T07:35:12.091Z,101623.84
2023-02-10T07:36:48.043Z,101623.63
2023-02-10T07:38:22.813Z,101626.41
2023-02-10T07:39:55.280Z,101627.69
2023-02-10T07:41:29.213Z,101627.56
2023-02-10T07:43:03.781Z,101629.22
2023-02-10T07:44:46.058Z,101626.81
2023-02-10T07:46:18.162Z,101625.75
2023-02-10T07:47:55.890Z,101626.59
2023-02-10T07:49:30.659Z,101619.25
2023-02-10T07:51:02.840Z,101627.34
2023-02-10T07:52:34.840Z,101630.66
2023-02-10T07:54:15.844Z,101628.31
2023-02-10T07:56:01.986Z,101630.88
2023-02-10T07:57:34.192Z,101625.00
2023-02-10T07:59:09.689Z,101630.22
2023-02-10T08:00:44.571Z,101626.69
2023-02-10T08:02:18.583Z,101633.31
2023-02-10T08:03:50.708Z,101633.03
2023-02-10T08:05:23.182Z,101639.00
2023-02-10T08:06:58.349Z,101635.91
2023-02-10T08:08:52.100Z,101633.97
2023-02-10T08:10:30.033Z,101635.50
2023-02-10T08:12:04.451Z,101629.28
2023-02-10T08:13:39.187Z,101633.56
2023-02-10T08:15:11.956Z,101635.78
2023-02-10T08:16:46.337Z,101631.88
2023-02-10T08:18:18.300Z,101632.50
2023-02-10T08:19:55.330Z,101632.22
2023-02-10T08:21:30.581Z,101632.31
2023-02-10T08:23:02.753Z,101628.97
2023-02-10T08:24:34.744Z,101629.50
2023-02-10T08:26:13.861Z,101625.97
2023-02-10T08:27:48.478Z,101630.09
2023-02-10T08:29:20.546Z,101637.22
2023-02-10T08:31:04.208Z,101629.69
2023-02-10T08:32:36.297Z,101629.91
2023-02-10T08:34:14.799Z,101629.56
2023-02-10T08:35:50.698Z,101634.16
2023-02-10T08:37:22.942Z,101628.81
2023-02-10T08:38:55.069Z,101630.75
2023-02-10T08:40:27.043Z,101631.09
2023-02-10T08:41:59.164Z,101620.75
2023-02-10T08:43:31.520Z,101625.56
2023-02-10T08:45:03.711Z,101625.81
2023-02-10T08:46:35.939Z,101634.78
2023-02-10T08:48:07.982Z,101634.03
2023-02-10T08:49:40.114Z,101633.59
2023-02-10T08:51:13.629Z,101636.47
2023-02-10T08:52:45.572Z,101633.31
2023-02-10T08:54:17.562Z,101632.47
2023-02-10T08:56:00.769Z,101634.63
2023-02-10T08:57:32.848Z,101631.44
2023-02-10T08:59:05.018Z,101632.84
2023-02-10T09:00:36.996Z,101634.53
2023-02-10T09:02:10.808Z,101630.19
2023-02-10T09:03:43.336Z,101626.56
2023-02-10T09:05:15.635Z,101627.84
2023-02-10T09:06:47.666Z,101632.38
2023-02-10T09:08:19.851Z,101628.75
2023-02-10T09:09:51.839Z,101619.47
2023-02-10T09:11:24.505Z,101618.09
2023-02-10T09:12:56.644Z,101618.59
2023-02-10T09:14:30.512Z,101613.50
2023-02-10T09:16:02.508Z,101627.69
2023-02-10T09:17:34.491Z,101624.81
2023-02-10T09:19:06.939Z,101630.66
2023-02-10T09:20:38.922Z,101629.97
2023-02-10T09:22:10.911Z,101633.91
2023-02-10T09:23:45.947Z,101634.44
2023-02-10T09:25:17.936Z,101644.16
2023-02-10T09:26:50.703Z,101645.41
2023-02-10T09:28:23.740Z,101653.19
2023-02-10T09:29:55.641Z,101640.78
2023-02-10T09:31:27.756Z,101640.22
2023-02-10T09:32:59.708Z,101635.06
2023-02-10T09:34:32.970Z,101639.84
2023-02-10T09:36:06.182Z,101640.06
2023-02-10T09:37:38.197Z,101647.81
2023-02-10T09:39:10.291Z,101641.91
2023-02-10T09:40:44.938Z,101646.09
2023-02-10T09:42:19.915Z,101653.09
2023-02-10T09:44:11.213Z,101647.97
2023-02-10T09:45:43.248Z,101659.56
2023-02-10T09:47:27.612Z,101652.16
2023-02-10T09:49:02.780Z,101671.38
2023-02-10T09:50:40.862Z,101677.03
2023-02-10T09:52:19.195Z,101668.88
2023-02-10T09:53:51.533Z,101672.16
2023-02-10T09:55:28.218Z,101668.63
2023-02-10T09:57:09.549Z,101669.38
2023-02-10T09:58:52.319Z,101674.47
2023-02-10T10:00:34.719Z,101668.22
2023-02-10T10:02:16.551Z,101661.69
2023-02-10T10:03:51.750Z,101654.28
2023-02-10T10:05:26.592Z,101645.50
2023-02-10T10:07:12.381Z,101642.41
2023-02-10T10:08:44.307Z,101639.84
2023-02-10T10:10:21.449Z,101640.88
2023-02-10T10:11:54.476Z,101647.44
2023-02-10T10:13:28.554Z,101633.63
2023-02-10T10:15:00.548Z,101641.22
2023-02-10T10:16:52.684Z,101643.00
2023-02-10T10:18:31.491Z,101639.44
2023-02-10T10:20:03.591Z,101641.56
2023-02-10T10:21:55.842Z,101644.53
2023-02-10T10:23:27.852Z,101639.03
2023-02-10T10:25:05.457Z,101638.16
2023-02-10T10:26:43.405Z,101636.06
2023-02-10T10:28:24.687Z,101629.09
2023-02-10T10:30:00.211Z,101625.22
2023-02-10T10:31:35.158Z,101626.72
2023-02-10T10:33:27.511Z,101629.56
2023-02-10T10:34:59.796Z,101632.84
2023-02-10T10:36:31.911Z,101628.09
2023-02-10T10:38:14.762Z,101624.81
2023-02-10T10:39:48.307Z,101629.16
2023-02-10T10:41:22.180Z,101617.09
2023-02-10T10:42:59.998Z,101623.06
2023-02-10T10:44:32.440Z,101620.38
2023-02-10T10:46:06.905Z,101611.88
2023-02-10T10:47:44.758Z,101607.88
2023-02-10T10:49:17.145Z,101592.25
2023-02-10T10:50:49.092Z,101599.84
2023-02-10T10:52:36.395Z,101600.13
2023-02-10T10:54:15.381Z,101588.22
2023-02-10T10:55:48.810Z,101585.84
2023-02-10T10:57:21.084Z,101590.59
2023-02-10T10:58:53.690Z,101590.78
2023-02-10T11:00:28.220Z,101591.78
2023-02-10T11:02:00.478Z,101589.72
2023-02-10T11:03:33.039Z,101589.53
2023-02-10T11:05:15.351Z,101587.91
2023-02-10T11:06:50.917Z,101578.22
2023-02-10T11:08:28.194Z,101571.50
2023-02-10T11:10:00.596Z,101572.84
2023-02-10T11:11:39.023Z,101570.00
2023-02-10T11:13:27.075Z,101568.38
2023-02-10T11:14:59.704Z,101566.56
2023-02-10T11:16:41.016Z,101563.72
2023-02-10T11:18:18.294Z,101562.06
2023-02-10T11:20:00.796Z,101554.63
2023-02-10T11:21:41.912Z,101553.69
2023-02-10T11:23:15.476Z,101553.25
2023-02-10T11:24:57.844Z,101542.06
2023-02-10T11:26:30.050Z,101536.56
2023-02-10T11:28:03.376Z,101542.50
2023-02-10T11:29:40.829Z,101538.94
2023-02-10T11:31:24.793Z,101536.03
2023-02-10T11:32:57.522Z,101539.16
2023-02-10T11:34:48.454Z,101530.06
2023-02-10T11:36:29.343Z,101541.53
2023-02-10T11:38:03.741Z,101533.78
2023-02-10T11:39:45.754Z,101533.03
2023-02-10T11:41:17.738Z,101539.44
2023-02-10T11:42:50.364Z,101533.34
2023-02-10T11:44:22.454Z,101532.13
2023-02-10T11:45:57.827Z,101536.16
2023-02-10T11:47:31.793Z,101535.97
2023-02-10T11:49:06.340Z,101531.19
2023-02-10T11:50:38.452Z,101539.34
2023-02-10T11:52:10.882Z,101540.38
2023-02-10T11:53:44.287Z,101538.72
2023-02-10T11:55:17.012Z,101533.66
2023-02-10T11:57:12.489Z,101535.88
2023-02-10T11:58:59.909Z,101537.19
2023-02-10T12:00:31.818Z,101546.56
2023-02-10T12:02:06.430Z,101533.13
2023-02-10T12:03:53.441Z,101528.81
2023-02-10T12:05:28.199Z,101533.03
2023-02-10T12:07:26.481Z,101535.09
2023-02-10T12:09:03.122Z,101521.97
2023-02-10T12:10:40.526Z,101519.56
2023-02-10T12:12:20.260Z,101518.94
2023-02-10T12:14:11.067Z,101519.31
2023-02-10T12:15:49.284Z,101525.06
2023-02-10T12:17:21.425Z,101525.72
2023-02-10T12:18:56.502Z,101520.00
2023-02-10T12:20:40.407Z,101526.03
2023-02-10T12:22:28.232Z,101521.59
2023-02-10T12:24:07.269Z,101532.25
2023-02-10T12:25:52.825Z,101526.31
2023-02-10T12:27:43.650Z,101522.81
2023-02-10T12:29:22.212Z,101518.31
2023-02-10T12:31:05.007Z,101520.88
2023-02-10T12:32:42.998Z,101514.66
2023-02-10T12:34:23.076Z,101520.16
2023-02-10T12:36:00.888Z,101513.13
2023-02-10T12:37:53.801Z,101509.97
2023-02-10T12:39:35.749Z,101514.34
2023-02-10T12:41:28.031Z,101510.44
2023-02-10T12:43:18.262Z,101502.72
2023-02-10T12:45:02.835Z,101504.56
2023-02-10T12:46:46.561Z,101512.94
2023-02-10T12:48:36.981Z,101513.19
2023-02-10T12:50:22.203Z,101508.09
2023-02-10T12:52:16.023Z,101506.16
2023-02-10T12:53:51.041Z,101502.00
2023-02-10T12:55:43.836Z,101509.50
2023-02-10T12:57:25.215Z,101512.19
2023-02-10T12:59:01.466Z,101511.47
2023-02-10T13:00:33.892Z,101514.06
2023-02-10T13:02:13.005Z,101509.34
2023-02-10T13:03:47.381Z,101512.97
2023-02-10T13:05:22.152Z,101514.19
2023-02-10T13:07:00.325Z,101511.03
2023-02-10T13:08:39.107Z,101503.91
2023-02-10T13:10:29.634Z,101499.16
2023-02-10T13:12:11.497Z,101505.47
2023-02-10T13:13:44.866Z,101504.53
2023-02-10T13:15:17.249Z,101515.84
2023-02-10T13:16:59.143Z,101509.34
2023-02-10T13:18:32.530Z,101509.50
2023-02-10T13:20:07.776Z,101499.59
2023-02-10T13:21:54.101Z,101502.50
2023-02-10T13:23:41.358Z,101500.47
2023-02-10T13:25:13.366Z,101498.91
2023-02-10T13:26:48.829Z,101505.88
2023-02-10T13:28:36.552Z,101504.47
2023-02-10T13:30:28.336Z,101493.28
2023-02-10T13:32:02.991Z,101496.00
2023-02-10T13:33:38.001Z,101491.63
2023-02-10T13:35:14.981Z,101488.19
2023-02-10T13:36:50.537Z,101505.38
2023-02-10T13:38:25.105Z,101493.84
2023-02-10T13:39:58.911Z,101496.06
2023-02-10T13:41:44.748Z,101495.59
2023-02-10T13:43:35.430Z,101493.66
2023-02-10T13:45:11.633Z,101493.91
2023-02-10T13:46:44.042Z,101499.28
2023-02-10T13:48:34.329Z,101500.00
2023-02-10T13:50:19.011Z,101497.03
2023-02-10T13:51:51.943Z,101496.00
2023-02-10T13:53:28.482Z,101497.22
2023-02-10T13:55:23.264Z,101490.13
2023-02-10T13:56:56.228Z,101499.72
2023-02-10T13:58:30.449Z,101493.13
2023-02-10T14:00:22.494Z,101503.16
2023-02-10T14:01:54.413Z,101498.50
2023-02-10T14:03:28.303Z,101492.09
2023-02-10T14:05:01.548Z,101497.47
2023-02-10T14:06:38.796Z,101495.28
2023-02-10T14:08:14.868Z,101499.41
2023-02-10T14:09:47.783Z,101495.25
2023-02-10T14:11:19.737Z,101503.25
2023-02-10T14:12:56.760Z,101502.03
2023-02-10T14:14:36.337Z,101499.09
2023-02-10T14:16:09.324Z,101501.22
2023-02-10T14:17:41.525Z,101506.16
2023-02-10T14:19:39.763Z,101496.31
2023-02-10T14:21:13.849Z,101504.66
2023-02-10T14:22:50.479Z,101507.66
2023-02-10T14:24:41.303Z,101512.06
2023-02-10T14:26:46.011Z,101506.47
2023-02-10T14:28:22.848Z,101511.63
2023-02-10T14:29:57.001Z,101508.91
2023-02-10T14:31:30.721Z,101508.91
2023-02-10T14:33:02.763Z,101508.19
2023-02-10T14:34:39.872Z,101510.59
2023-02-10T14:36:18.866Z,101515.00
2023-02-10T14:37:54.949Z,101511.28
2023-02-10T14:39:31.337Z,101506.84
2023-02-10T14:41:19.700Z,101516.63
2023-02-10T14:42:52.401Z,101521.00
2023-02-10T14:44:24.392Z,101515.06
2023-02-10T14:45:57.905Z,101522.91
2023-02-10T14:47:37.260Z,101518.19
2023-02-10T14:49:10.218Z,101516.44
2023-02-10T14:50:45.874Z,101521.28
2023-02-10T14:52:37.654Z,101522.22
2023-02-10T14:54:20.756Z,101518.47
2023-02-10T14:55:57.348Z,101518.41
2023-02-10T14:57:31.557Z,101530.09
2023-02-10T14:59:03.601Z,101524.66
2023-02-10T15:00:36.078Z,101526.06
2023-02-10T15:02:21.810Z,101533.06
2023-02-10T15:03:54.383Z,101528.25
2023-02-10T15:05:27.529Z,101535.25
2023-02-10T15:06:59.718Z,101532.84
2023-02-10T15:08:46.982Z,101533.13
2023-02-10T15:10:28.140Z,101522.88
2023-02-10T15:12:18.271Z,101525.13
2023-02-10T15:13:50.674Z,101527.31
2023-02-10T15:15:29.262Z,101524.16
2023-02-10T15:17:04.406Z,101530.28
2023-02-10T15:18:38.335Z,101531.25
2023-02-10T15:20:29.504Z,101527.63
2023-02-10T15:22:02.144Z,101530.28
2023-02-10T15:23:34.425Z,101533.91
2023-02-10T15:25:24.980Z,101542.22
2023-02-10T15:27:09.220Z,101536.75
2023-02-10T15:28:41.393Z,101540.09
2023-02-10T15:30:20.581Z,101536.44
2023-02-10T15:31:54.207Z,101542.25
2023-02-10T15:33:28.278Z,101542.00
2023-02-10T15:35:06.292Z,101550.50
2023-02-10T15:36:46.475Z,101541.75
2023-02-10T15:38:18.639Z,101548.91
2023-02-10T15:39:57.650Z,101546.38
2023-02-10T15:41:34.833Z,101550.84
2023-02-10T15:43:22.596Z,101548.78
2023-02-10T15:45:02.955Z,101556.97
2023-02-10T15:46:35.365Z,101553.69
2023-02-10T15:48:09.338Z,101545.78
2023-02-10T15:49:41.452Z,101543.44
2023-02-10T15:51:19.365Z,101557.41
2023-02-10T15:52:51.312Z,101554.28
2023-02-10T15:54:30.477Z,101548.47
2023-02-10T15:56:02.654Z,101563.63
2023-02-10T15:57:34.738Z,101553.22
2023-02-10T15:59:13.569Z,101554.25
2023-02-10T16:00:46.550Z,101556.16
2023-02-10T16:02:19.627Z,101551.53
2023-02-10T16:03:51.705Z,101556.84
2023-02-10T16:05:24.183Z,101558.72
2023-02-10T16:06:57.127Z,101557.22
2023-02-10T16:08:29.354Z,101554.97
2023-02-10T16:10:01.359Z,101556.84
2023-02-10T16:11:34.626Z,101552.19
2023-02-10T16:13:06.797Z,101562.81
2023-02-10T16:14:38.790Z,101555.03
2023-02-10T16:16:14.897Z,101560.97
2023-02-10T16:17:48.847Z,101562.72
2023-02-10T16:19:22.019Z,101557.94
2023-02-10T16:20:53.937Z,101560.72
2023-02-10T16:22:26.045Z,101561.13
2023-02-10T16:23:57.991Z,101562.31
2023-02-10T16:25:30.150Z,101568.00
2023-02-10T16:27:02.629Z,101568.63
2023-02-10T16:28:34.972Z,101572.03
2023-02-10T16:30:07.305Z,101570.09
2023-02-10T16:31:40.465Z,101574.25
2023-02-10T16:33:14.349Z,101578.88
2023-02-10T16:34:46.414Z,101576.94
2023-02-10T16:36:18.764Z,101575.75
2023-02-10T16:37:52.255Z,101578.44
2023-02-10T16:39:26.188Z,101586.13
2023-02-10T16:40:58.163Z,101582.41
2023-02-10T16:42:30.209Z,101584.78
2023-02-10T16:44:02.213Z,101585.19
2023-02-10T16:45:34.693Z,101592.16
2023-02-10T16:47:06.695Z,101593.03
2023-02-10T16:48:38.761Z,101586.63
2023-02-10T16:50:38.058Z,101596.25
2023-02-10T16:52:10.076Z,101593.38
2023-02-10T16:53:42.161Z,101589.22
2023-02-10T16:55:14.457Z,101592.63
2023-02-10T16:56:46.438Z,101595.28
2023-02-10T16:58:18.534Z,101592.75
2023-02-10T16:59:50.525Z,101592.88
2023-02-10T17:01:22.593Z,101591.06
2023-02-10T17:02:55.179Z,101582.41
2023-02-10T17:04:27.293Z,101590.22
2023-02-10T17:05:59.777Z,101585.47
2023-02-10T17:07:31.733Z,101589.09
2023-02-10T17:09:04.151Z,101591.25
2023-02-10T17:10:36.327Z,101588.09
2023-02-10T17:12:08.434Z,101587.56
2023-02-10T17:13:40.542Z,101594.59
2023-02-10T17:15:12.800Z,101587.22
2023-02-10T17:16:52.283Z,101574.44
2023-02-10T17:18:24.349Z,101576.16
2023-02-10T17:19:58.762Z,101583.50
2023-02-10T17:21:31.183Z,101576.75
2023-02-10T17:23:03.631Z,101582.59
2023-02-10T17:24:35.736Z,101582.72
2023-02-10T17:26:10.634Z,101592.75
2023-02-10T17:27:42.751Z,101591.38
2023-02-10T17:29:15.875Z,101584.63
2023-02-10T17:30:48.215Z,101580.56
2023-02-10T17:32:20.339Z,101586.41
2023-02-10T17:33:52.984Z,101586.19
2023-02-10T17:35:25.023Z,101588.97
2023-02-10T17:36:57.090Z,101590.56
2023-02-10T17:38:47.523Z,101589.94
2023-02-10T17:40:29.957Z,101592.47
2023-02-10T17:42:02.210Z,101588.31
2023-02-10T17:43:34.624Z,101597.16
2023-02-10T17:45:06.716Z,101594.59
2023-02-10T17:46:39.414Z,101594.69
2023-02-10T17:48:12.771Z,101601.63
2023-02-10T17:49:44.820Z,101600.56
2023-02-10T17:51:18.485Z,101596.06
2023-02-10T17:52:51.604Z,101597.22
2023-02-10T17:54:23.961Z,101601.03
2023-02-10T17:55:56.002Z,101594.97
2023-02-10T17:57:27.978Z,101603.31
2023-02-10T17:59:00.142Z,101598.28
2023-02-10T18:00:32.160Z,101600.88
2023-02-10T18:02:04.444Z,101601.53
2023-02-10T18:03:36.455Z,101602.06
2023-02-10T18:05:09.668Z,101598.13
2023-02-10T18:06:42.372Z,101591.63
2023-02-10T18:08:14.858Z,101599.97
2023-02-10T18:09:46.891Z,101596.44